Bookmark and Share
Track history (hours):
 

M-t Pazar

Last reported at 2014-Apr-10 19:31 UTC. Time now 2014-Apr-16 10:35 UTC.
Position N 36°25' E 022°60'.

Length 84 m; draft 5.5 m.

Type: Tanker. MMSI: 271000251.

NotesDate/timePositionNaut miles runAvg speedWind from/ knotsBaromVisibWave heightAir tempDewpointWater temp
2014-Apr-10 19:31N 36°25' E 022°60'101 8.3
2014-Apr-10 07:15N 37°45' E 024°18'7 9.5
2014-Apr-10 06:33N 37°50' E 024°25'181 6.6
2014-Apr-09 03:06N 40°19' E 026°36'  
2014-Apr-06 00:13N 46°35' E 031°25'6 8.3
2014-Apr-05 23:33N 46°35' E 031°33'9 9.3
2014-Apr-05 22:33N 46°36' E 031°46'8 8.4
2014-Apr-05 21:33N 46°41' E 031°56'5 5.1
2014-Apr-05 20:31N 46°46' E 031°57'0 0.0
2014-Apr-05 19:32N 46°46' E 031°57'0 0.0
2014-Apr-05 18:32N 46°46' E 031°57'0 0.0
2014-Apr-05 17:32N 46°46' E 031°57'0 0.0
2014-Apr-05 16:28N 46°46' E 031°57'0 0.0
2014-Apr-05 15:31N 46°46' E 031°57'0 0.0
2014-Apr-05 14:33N 46°46' E 031°57'0 0.0
2014-Apr-05 13:33N 46°46' E 031°57'0 0.0
2014-Apr-05 12:32N 46°46' E 031°57'0 0.0
2014-Apr-05 11:32N 46°46' E 031°57'0 0.0
2014-Apr-05 10:32N 46°46' E 031°57'0 0.0
2014-Apr-05 09:31N 46°46' E 031°57'0 0.0
2014-Apr-05 08:31N 46°46' E 031°57'0 0.0
2014-Apr-05 07:33N 46°46' E 031°57'0 0.0
2014-Apr-05 06:33N 46°46' E 031°57'0 0.0
2014-Apr-05 05:32N 46°46' E 031°57'0 0.0
2014-Apr-05 04:32N 46°46' E 031°57'0 0.0
2014-Apr-05 03:28N 46°46' E 031°57'0 0.0
2014-Apr-05 02:31N 46°46' E 031°57'0 0.0
2014-Apr-05 01:31N 46°46' E 031°57'0 0.0
2014-Apr-05 00:33N 46°46' E 031°57'0 0.0
2014-Apr-04 23:33N 46°46' E 031°57'0 0.0
2014-Apr-04 22:33N 46°46' E 031°57'2 2.4
2014-Apr-04 21:33N 46°44' E 031°56'10 8.9
2014-Apr-04 20:29N 46°36' E 031°48'1110.1
2014-Apr-04 19:26N 46°35' E 031°33'  
2014-Mar-31 23:08N 39°54' E 026°06'  

Dump ship's entire track history

sailing weather and tide predictions

M-t Pazar — TCMC — position and weather